Time;durP1;ratioP1;P1;durP2;ratioP2;P2;SDS_P1;SDS_P2;PMS_P1;PMS_P2;Temp;Humidity;BMP_temperature;BMP_pressure;BME280_temperature;BME280_humidity;BME280_pressure;Samples;Min_cycle;Max_cycle;Signal;HPM_P1;HPM_P2
2021/05/27 00:01:35;;;;;;;;;;;;;;;7.71;100.00;99293.19;5055943;28;20418;-76
2021/05/27 00:04:02;;;;;;;;;;;;;;;7.63;100.00;99297.16;5087803;28;20344;-76
2021/05/27 00:06:29;;;;;;;;;;;;;;;7.62;100.00;99301.91;5055903;28;19929;-76
2021/05/27 00:08:57;;;;;;;;;;;;;;;7.58;100.00;99317.81;5055903;28;20172;-76
2021/05/27 00:11:24;;;;;;;;;;;;;;;7.51;100.00;99317.81;5087890;28;20288;-76
2021/05/27 00:13:52;;;;;;;;;;;;;;;7.41;100.00;99318.59;5055530;28;20384;-76
2021/05/27 00:16:19;;;;;;;;;;;;;;;7.36;100.00;99325.34;5087248;28;19947;-76
2021/05/27 00:18:51;;;;;;;;;;;;;;;7.26;100.00;99334.47;5054209;28;20065;-76
2021/05/27 00:21:19;;;;;;;;;;;;;;;7.41;100.00;99346.38;5070847;28;20381;-76
2021/05/27 00:23:47;;;;;;;;;;;;;;;7.41;100.00;99349.16;5055734;28;19988;-76
2021/05/27 00:26:14;;;;;;;;;;;;;;;7.34;100.00;99346.38;5055334;28;19968;-76
2021/05/27 00:28:43;;;;;;;;;;;;;;;7.43;100.00;99355.13;5037877;28;20010;-76
2021/05/27 00:31:10;;;;;;;;;;;;;;;7.43;100.00;99363.47;5055183;28;20036;-76
2021/05/27 00:33:37;;;;;;;;;;;;;;;7.50;100.00;99357.91;5053980;28;19948;-76
2021/05/27 00:36:04;;;;;;;;;;;;;;;7.54;100.00;99363.50;5054822;28;20070;-76
2021/05/27 00:38:31;;;;;;;;;;;;;;;7.54;100.00;99369.84;5055094;28;20075;-76
2021/05/27 00:40:58;;;;;;;;;;;;;;;7.52;100.00;99380.56;5055243;28;19924;-76
2021/05/27 00:43:26;;;;;;;;;;;;;;;7.55;100.00;99384.53;5054639;28;19928;-76
2021/05/27 00:45:53;;;;;;;;;;;;;;;7.60;100.00;99387.72;5055128;28;20402;-76
2021/05/27 00:49:06;;;;;;;;;;;;;;;7.67;100.00;99395.28;5055060;28;19931;-76
2021/05/27 00:51:08;;;;;;;;;;;;;;;7.61;100.00;99402.41;5047741;28;19933;-76
2021/05/27 00:53:35;;;;;;;;;;;;;;;7.52;100.00;99413.13;5037279;28;19929;-76
2021/05/27 00:56:03;;;;;;;;;;;;;;;7.57;100.00;99423.88;5040946;28;20012;-76
2021/05/27 00:58:30;;;;;;;;;;;;;;;7.51;100.00;99434.59;5086802;28;20375;-76
2021/05/27 01:00:59;;;;;;;;;;;;;;;7.55;100.00;99440.16;5086935;28;20296;-76
2021/05/27 01:03:26;;;;;;;;;;;;;;;7.54;100.00;99450.50;5052999;28;19935;-76
2021/05/27 01:05:53;;;;;;;;;;;;;;;7.42;100.00;99453.66;5053571;28;20518;-76
2021/05/27 01:08:21;;;;;;;;;;;;;;;7.13;100.00;99461.06;5054802;28;19924;-76
2021/05/27 01:10:50;;;;;;;;;;;;;;;6.97;100.00;99465.38;5054437;28;20300;-76
2021/05/27 01:13:21;;;;;;;;;;;;;;;6.83;100.00;99468.88;5086939;28;19968;-76
2021/05/27 01:15:48;;;;;;;;;;;;;;;6.68;100.00;99469.19;5040589;28;19947;-76
2021/05/27 01:18:17;;;;;;;;;;;;;;;6.56;100.00;99472.28;5054334;28;19929;-76
2021/05/27 01:20:45;;;;;;;;;;;;;;;6.47;100.00;99480.94;5054577;28;19932;-76
2021/05/27 01:23:13;;;;;;;;;;;;;;;6.51;100.00;99481.00;5086601;28;19947;-76
2021/05/27 01:25:45;;;;;;;;;;;;;;;6.44;100.00;99487.28;5052926;28;19925;-76
2021/05/27 01:28:12;;;;;;;;;;;;;;;6.23;100.00;99489.09;5054264;28;19925;-75
2021/05/27 01:30:39;;;;;;;;;;;;;;;6.20;100.00;99490.66;5054378;28;20299;-76
2021/05/27 01:33:17;;;;;;;;;;;;;;;6.13;100.00;99482.28;5069608;28;19929;-76
2021/05/27 01:35:45;;;;;;;;;;;;;;;6.29;100.00;99493.09;5053105;28;19956;-76
2021/05/27 01:38:14;;;;;;;;;;;;;;;6.39;100.00;99503.50;5086458;28;19932;-76
2021/05/27 01:40:44;;;;;;;;;;;;;;;6.13;100.00;99493.38;5052735;28;19925;-76
2021/05/27 01:43:12;;;;;;;;;;;;;;;6.16;100.00;99508.47;5086208;28;19932;-76
2021/05/27 01:45:40;;;;;;;;;;;;;;;6.24;100.00;99508.13;5053717;28;19932;-76
2021/05/27 01:48:08;;;;;;;;;;;;;;;6.25;100.00;99511.72;5051809;28;20011;-76
2021/05/27 01:50:35;;;;;;;;;;;;;;;6.55;100.00;99517.88;5053791;28;19932;-76
2021/05/27 01:53:03;;;;;;;;;;;;;;;6.60;100.00;99509.22;5063862;28;19929;-76
2021/05/27 01:55:30;;;;;;;;;;;;;;;6.61;100.00;99513.56;5050224;28;19925;-76
2021/05/27 01:57:59;;;;;;;;;;;;;;;6.81;100.00;99528.78;5085991;28;20031;-76
2021/05/27 02:00:28;;;;;;;;;;;;;;;6.83;100.00;99524.41;5073583;28;19925;-76
2021/05/27 02:02:57;;;;;;;;;;;;;;;6.82;100.00;99530.38;5051454;28;19952;-76
2021/05/27 02:05:30;;;;;;;;;;;;;;;6.82;100.00;99530.38;5052475;28;20018;-76
2021/05/27 02:08:00;;;;;;;;;;;;;;;6.52;100.00;99530.56;5053670;28;19993;-76
2021/05/27 02:10:42;;;;;;;;;;;;;;;6.23;100.00;99525.97;5051772;28;19978;-76
2021/05/27 02:13:09;;;;;;;;;;;;;;;6.14;100.00;99528.28;5053449;28;19925;-76
2021/05/27 02:15:37;;;;;;;;;;;;;;;6.09;100.00;99533.38;5051492;28;20342;-76
2021/05/27 02:18:04;;;;;;;;;;;;;;;5.94;100.00;99529.66;5053062;28;19928;-76
2021/05/27 02:20:32;;;;;;;;;;;;;;;5.82;100.00;99521.63;5053386;28;19925;-76
2021/05/27 02:23:02;;;;;;;;;;;;;;;5.68;100.00;99523.44;5085552;28;19931;-76
2021/05/27 02:25:44;;;;;;;;;;;;;;;5.67;100.00;99519.03;5053150;28;19925;-76
2021/05/27 02:28:30;;;;;;;;;;;;;;;5.49;100.00;99519.66;5053131;28;20066;-76
2021/05/27 02:31:00;;;;;;;;;;;;;;;5.52;100.00;99518.91;5084711;28;19931;-76
2021/05/27 02:33:31;;;;;;;;;;;;;;;5.42;100.00;99521.56;5085563;28;19925;-76
2021/05/27 02:36:01;;;;;;;;;;;;;;;5.33;100.00;99532.13;5051903;28;19932;-76
2021/05/27 02:38:30;;;;;;;;;;;;;;;5.30;100.00;99533.66;5067675;28;19932;-76
2021/05/27 02:40:58;;;;;;;;;;;;;;;5.25;100.00;99531.25;5051783;28;19925;-76
2021/05/27 02:43:28;;;;;;;;;;;;;;;5.34;100.00;99539.25;5051749;28;19935;-76
2021/05/27 02:45:58;;;;;;;;;;;;;;;5.18;100.00;99531.16;5035088;28;19928;-76
2021/05/27 02:48:31;;;;;;;;;;;;;;;5.19;100.00;99534.72;5067401;28;19924;-76
2021/05/27 02:51:00;;;;;;;;;;;;;;;5.13;100.00;99528.72;5052763;28;20232;-76
2021/05/27 02:53:28;;;;;;;;;;;;;;;5.34;100.00;99533.72;5051190;28;19925;-76
2021/05/27 02:55:56;;;;;;;;;;;;;;;5.22;100.00;99532.00;5085043;28;19932;-76
2021/05/27 02:58:29;;;;;;;;;;;;;;;5.05;100.00;99527.03;5068784;28;19929;-76
2021/05/27 03:00:58;;;;;;;;;;;;;;;5.01;100.00;99522.63;5051550;28;19932;-76
2021/05/27 03:03:27;;;;;;;;;;;;;;;5.05;100.00;99535.34;5052559;28;19999;-76
2021/05/27 03:05:58;;;;;;;;;;;;;;;4.98;100.00;99535.22;5051430;28;19935;-76
2021/05/27 03:08:30;;;;;;;;;;;;;;;4.85;100.00;99536.63;5084433;28;19968;-76
2021/05/27 03:10:57;;;;;;;;;;;;;;;4.83;100.00;99536.22;5052563;28;19924;-76
2021/05/27 03:13:27;;;;;;;;;;;;;;;4.75;100.00;99533.72;5051208;28;20380;-76
2021/05/27 03:15:54;;;;;;;;;;;;;;;4.85;100.00;99533.88;5052532;28;19932;-76
2021/05/27 03:18:27;;;;;;;;;;;;;;;4.72;100.00;99542.78;5052425;28;19936;-75
2021/05/27 03:20:59;;;;;;;;;;;;;;;4.75;100.00;99529.00;5077455;28;20012;-76
2021/05/27 03:23:27;;;;;;;;;;;;;;;4.74;100.00;99541.22;5047970;28;20446;-76
2021/05/27 03:25:55;;;;;;;;;;;;;;;4.70;100.00;99548.69;5070627;28;20292;-76
2021/05/27 03:28:23;;;;;;;;;;;;;;;4.62;100.00;99541.44;5084778;28;19925;-76
2021/05/27 03:30:55;;;;;;;;;;;;;;;4.55;100.00;99551.59;5052184;28;20304;-76
2021/05/27 03:33:23;;;;;;;;;;;;;;;4.52;100.00;99553.16;5052508;28;20338;-76
2021/05/27 03:35:51;;;;;;;;;;;;;;;4.68;100.00;99562.09;5050981;28;19925;-76
2021/05/27 03:38:19;;;;;;;;;;;;;;;4.44;100.00;99554.19;5051086;28;19932;-76
2021/05/27 03:40:46;;;;;;;;;;;;;;;4.44;100.00;99550.66;5051134;28;19928;-76
2021/05/27 03:43:14;;;;;;;;;;;;;;;4.49;100.00;99562.19;5051253;28;19968;-76
2021/05/27 03:45:43;;;;;;;;;;;;;;;4.29;100.00;99560.66;5052290;28;19987;-76
2021/05/27 03:48:14;;;;;;;;;;;;;;;4.22;100.00;99557.81;5051208;28;19933;-76
2021/05/27 03:50:42;;;;;;;;;;;;;;;4.20;100.00;99560.13;5050736;28;19967;-76
2021/05/27 03:53:14;;;;;;;;;;;;;;;4.27;100.00;99551.94;5050861;28;19925;-76
2021/05/27 03:55:46;;;;;;;;;;;;;;;4.33;100.00;99549.69;5051122;28;19940;-76
2021/05/27 04:01:03;;;;;;;;;;;;;;;4.24;100.00;99552.69;5084296;28;19932;-76
2021/05/27 04:09:15;;;;;;;;;;;;;;;4.11;100.00;99556.81;5050963;28;19932;-76
2021/05/27 04:11:42;;;;;;;;;;;;;;;4.06;100.00;99559.88;5053533;28;19925;-76
2021/05/27 04:14:10;;;;;;;;;;;;;;;4.24;100.00;99554.66;5055836;28;20407;-76
2021/05/27 04:16:37;;;;;;;;;;;;;;;4.33;100.00;99561.53;5046657;28;20384;-76
2021/05/27 04:19:04;;;;;;;;;;;;;;;4.31;100.00;99557.53;5041123;28;19942;-76
2021/05/27 04:21:32;;;;;;;;;;;;;;;4.28;100.00;99556.31;5055353;28;20023;-76
2021/05/27 04:23:59;;;;;;;;;;;;;;;4.39;100.00;99571.09;5055321;28;20375;-76
2021/05/27 04:26:26;;;;;;;;;;;;;;;4.44;100.00;99570.81;5055667;28;20296;-76
2021/05/27 04:28:53;;;;;;;;;;;;;;;4.21;100.00;99558.94;5055436;28;20357;-76
2021/05/27 04:31:21;;;;;;;;;;;;;;;4.11;100.00;99565.09;5055415;28;19935;-76
2021/05/27 04:33:53;;;;;;;;;;;;;;;4.09;100.00;99575.72;5055403;28;20277;-76
2021/05/27 04:36:21;;;;;;;;;;;;;;;4.19;100.00;99583.44;5055443;28;20331;-76
2021/05/27 04:38:49;;;;;;;;;;;;;;;4.33;100.00;99591.94;5055274;28;20449;-76
2021/05/27 04:41:17;;;;;;;;;;;;;;;4.45;100.00;99585.44;5054172;28;20338;-76
2021/05/27 04:43:46;;;;;;;;;;;;;;;4.61;100.00;99594.41;5055244;28;20019;-76
2021/05/27 04:46:13;;;;;;;;;;;;;;;4.73;100.00;99597.75;5054744;28;19929;-76
2021/05/27 04:48:41;;;;;;;;;;;;;;;4.73;100.00;99596.97;5054913;28;20371;-76
2021/05/27 04:51:08;;;;;;;;;;;;;;;4.66;100.00;99592.13;5054743;28;20017;-76
2021/05/27 04:53:35;;;;;;;;;;;;;;;4.76;100.00;99591.47;5053911;28;19925;-76
2021/05/27 04:56:03;;;;;;;;;;;;;;;4.85;100.00;99592.03;5054872;28;19924;-76
2021/05/27 04:58:31;;;;;;;;;;;;;;;4.94;100.00;99603.63;5087301;28;19982;-76
2021/05/27 05:00:59;;;;;;;;;;;;;;;4.97;100.00;99605.66;5054884;28;20360;-76
2021/05/27 05:03:26;;;;;;;;;;;;;;;5.11;100.00;99608.63;5054541;28;19925;-76
2021/05/27 05:05:55;;;;;;;;;;;;;;;5.31;100.00;99612.88;5054777;28;19956;-76
2021/05/27 05:08:22;;;;;;;;;;;;;;;5.43;100.00;99618.19;5054526;28;20442;-76
2021/05/27 05:10:49;;;;;;;;;;;;;;;5.56;100.00;99652.78;5054764;28;19959;-76
2021/05/27 05:13:16;;;;;;;;;;;;;;;5.73;100.00;99678.34;5086987;28;19925;-76
2021/05/27 05:15:43;;;;;;;;;;;;;;;5.73;100.00;99689.44;5054781;28;19928;-76
2021/05/27 05:18:15;;;;;;;;;;;;;;;5.77;100.00;99701.38;5054279;28;19971;-76
2021/05/27 05:20:44;;;;;;;;;;;;;;;5.79;100.00;99710.91;5054207;28;19968;-76
2021/05/27 05:23:11;;;;;;;;;;;;;;;5.75;100.00;99703.72;5054617;28;19924;-76
2021/05/27 05:25:39;;;;;;;;;;;;;;;5.87;100.00;99717.38;5052853;28;19928;-76
2021/05/27 05:28:07;;;;;;;;;;;;;;;5.89;100.00;99709.50;5086352;28;19932;-76
2021/05/27 05:30:34;;;;;;;;;;;;;;;5.99;100.00;99715.19;5054213;28;19977;-76
2021/05/27 05:33:02;;;;;;;;;;;;;;;6.31;100.00;99729.44;5085944;28;19932;-76
2021/05/27 05:35:29;;;;;;;;;;;;;;;6.85;100.00;99746.25;5054420;28;19947;-76
2021/05/27 05:37:57;;;;;;;;;;;;;;;7.22;100.00;99763.69;5052985;28;19929;-76
2021/05/27 05:40:27;;;;;;;;;;;;;;;7.95;100.00;100088.97;5054111;28;20396;-76
2021/05/27 05:42:56;;;;;;;;;;;;;;;9.43;100.00;100140.38;5053969;28;19960;-76
2021/05/27 05:45:23;;;;;;;;;;;;;;;10.90;100.00;100186.34;5053119;28;19925;-76
2021/05/27 05:47:54;;;;;;;;;;;;;;;11.66;100.00;100220.28;5053500;28;20376;-76
2021/05/27 05:53:08;;;;;;;;;;;;;;;12.56;100.00;100237.97;5053747;28;19986;-76
2021/05/27 05:55:35;;;;;;;;;;;;;;;13.04;100.00;100238.06;5053451;28;19924;-76
2021/05/27 05:58:03;;;;;;;;;;;;;;;13.54;100.00;100238.47;5053590;28;19925;-77
2021/05/27 06:00:30;;;;;;;;;;;;;;;14.28;100.00;100236.47;5052864;28;20331;-76
2021/05/27 06:02:57;;;;;;;;;;;;;;;14.85;100.00;100222.44;5053388;28;19935;-76
2021/05/27 06:05:43;;;;;;;;;;;;;;;14.83;100.00;100171.41;5053782;28;19924;-77
2021/05/27 06:08:23;;;;;;;;;;;;;;;14.84;100.00;100111.13;5085788;28;19978;-76
2021/05/27 06:10:50;;;;;;;;;;;;;;;15.38;100.00;100047.81;5053430;28;19974;-77
2021/05/27 06:13:17;;;;;;;;;;;;;;;15.79;100.00;99951.56;5053461;28;19935;-77
2021/05/27 06:15:44;;;;;;;;;;;;;;;15.37;100.00;99851.09;5051971;28;19925;-76
2021/05/27 06:18:11;;;;;;;;;;;;;;;15.44;100.00;99787.00;5053442;28;19925;-76
2021/05/27 06:20:49;;;;;;;;;;;;;;;15.24;100.00;99735.53;5065603;28;20392;-77
2021/05/27 06:23:24;;;;;;;;;;;;;;;14.65;100.00;99687.09;5047823;28;21499;-77
2021/05/27 06:25:52;;;;;;;;;;;;;;;14.49;100.00;99661.75;5052576;28;19979;-76
2021/05/27 06:28:20;;;;;;;;;;;;;;;14.79;100.00;99683.97;5053344;28;19928;-77
2021/05/27 06:30:47;;;;;;;;;;;;;;;15.70;100.00;99661.19;5051325;28;19980;-77
2021/05/27 06:33:14;;;;;;;;;;;;;;;15.81;100.00;99614.56;5031888;28;19932;-77
2021/05/27 06:35:41;;;;;;;;;;;;;;;15.90;100.00;99609.06;5049243;28;19925;-76
2021/05/27 06:38:13;;;;;;;;;;;;;;;16.37;100.00;99583.91;5053326;28;20303;-76
2021/05/27 06:40:41;;;;;;;;;;;;;;;16.65;100.00;99548.38;5053010;28;19978;-77
2021/05/27 06:43:08;;;;;;;;;;;;;;;17.77;100.00;99530.31;5051996;28;20341;-77
2021/05/27 06:45:36;;;;;;;;;;;;;;;18.68;100.00;99525.91;5068021;28;19925;-77
2021/05/27 06:48:04;;;;;;;;;;;;;;;19.61;100.00;99446.50;5052940;28;19929;-77
2021/05/27 06:50:39;;;;;;;;;;;;;;;19.67;100.00;99399.25;5052872;28;20027;-76
2021/05/27 06:53:08;;;;;;;;;;;;;;;20.04;100.00;99350.94;5052686;28;19932;-77
2021/05/27 06:55:36;;;;;;;;;;;;;;;20.26;100.00;99340.09;5051542;28;19990;-77
2021/05/27 06:58:03;;;;;;;;;;;;;;;20.37;100.00;99320.47;5051614;28;19932;-77
2021/05/27 07:00:31;;;;;;;;;;;;;;;20.83;100.00;99319.63;5034953;28;20344;-77
2021/05/27 07:03:01;;;;;;;;;;;;;;;21.25;100.00;99313.72;5067669;28;19933;-77
2021/05/27 07:05:28;;;;;;;;;;;;;;;19.96;100.00;99312.81;5052765;28;20372;-77
2021/05/27 07:07:56;;;;;;;;;;;;;;;20.67;100.00;99316.47;5052643;28;19924;-76
2021/05/27 07:10:24;;;;;;;;;;;;;;;21.24;100.00;99315.78;5067475;28;19924;-74
2021/05/27 07:12:52;;;;;;;;;;;;;;;19.99;100.00;99317.53;5052594;28;19990;-74
2021/05/27 07:15:20;;;;;;;;;;;;;;;18.64;100.00;99322.31;5084456;28;19972;-74
2021/05/27 07:17:48;;;;;;;;;;;;;;;17.56;100.00;99322.03;5051307;28;19928;-74
2021/05/27 07:20:16;;;;;;;;;;;;;;;17.25;100.00;99329.69;5051234;28;19925;-74
2021/05/27 07:22:44;;;;;;;;;;;;;;;16.54;100.00;99325.13;5051268;28;19925;-75
2021/05/27 07:25:11;;;;;;;;;;;;;;;18.08;100.00;99329.59;5051276;28;19924;-74
2021/05/27 07:27:39;;;;;;;;;;;;;;;18.86;100.00;99331.41;5038531;28;19928;-74
2021/05/27 07:30:06;;;;;;;;;;;;;;;18.19;100.00;99327.88;5052295;28;20281;-75
2021/05/27 07:32:34;;;;;;;;;;;;;;;17.95;100.00;99321.22;5052150;28;20356;-77
2021/05/27 07:35:05;;;;;;;;;;;;;;;18.61;100.00;99328.91;5051604;28;20024;-77
2021/05/27 07:37:32;;;;;;;;;;;;;;;18.80;100.00;99329.66;5051534;28;19966;-75
2021/05/27 07:40:00;;;;;;;;;;;;;;;18.79;100.00;99328.09;5067787;28;19932;-74
2021/05/27 07:42:30;;;;;;;;;;;;;;;18.72;100.00;99326.38;5051877;28;20303;-74
2021/05/27 07:44:58;;;;;;;;;;;;;;;17.27;100.00;99327.19;5051001;28;19948;-74
2021/05/27 07:47:25;;;;;;;;;;;;;;;17.96;100.00;99328.47;5086292;28;20395;-75
2021/05/27 07:49:53;;;;;;;;;;;;;;;19.95;100.00;99323.38;5054490;28;19968;-75
2021/05/27 07:52:20;;;;;;;;;;;;;;;19.06;100.00;99320.38;5056076;28;19925;-76
2021/05/27 07:54:48;;;;;;;;;;;;;;;19.61;100.00;99332.38;5087855;28;19929;-76
2021/05/27 07:57:15;;;;;;;;;;;;;;;19.69;100.00;99317.38;5055677;28;20010;-76
2021/05/27 07:59:42;;;;;;;;;;;;;;;19.58;100.00;99322.75;5055231;28;19925;-76
2021/05/27 08:02:10;;;;;;;;;;;;;;;19.24;100.00;99320.31;5055370;28;20376;-76
2021/05/27 08:04:41;;;;;;;;;;;;;;;20.48;100.00;99326.38;5055539;28;19987;-76
2021/05/27 08:07:09;;;;;;;;;;;;;;;20.10;100.00;99317.78;5046777;28;19933;-76
2021/05/27 08:09:37;;;;;;;;;;;;;;;19.59;100.00;99332.06;5055474;28;19972;-76
2021/05/27 08:12:05;;;;;;;;;;;;;;;19.45;100.00;99336.34;5045543;28;19925;-76
2021/05/27 08:14:32;;;;;;;;;;;;;;;17.64;100.00;99338.25;5054662;28;19924;-75
2021/05/27 08:16:59;;;;;;;;;;;;;;;16.53;100.00;99340.44;5055339;28;19925;-75
2021/05/27 08:19:27;;;;;;;;;;;;;;;17.26;100.00;99336.91;5086631;28;20300;-76
2021/05/27 08:21:54;;;;;;;;;;;;;;;17.94;100.00;99337.41;5083135;28;19929;-76
2021/05/27 08:24:27;;;;;;;;;;;;;;;17.25;100.00;99338.16;5056361;28;19931;-76
2021/05/27 08:27:20;;;;;;;;;;;;;;;16.72;100.00;99342.19;5054396;28;20269;-75
2021/05/27 08:29:47;;;;;;;;;;;;;;;16.75;100.00;99347.69;5055007;28;20339;-75
2021/05/27 08:32:14;;;;;;;;;;;;;;;18.22;100.00;99349.56;5054895;28;20433;-74
2021/05/27 08:34:41;;;;;;;;;;;;;;;19.67;100.00;99344.63;5054941;28;19967;-75
2021/05/27 08:37:08;;;;;;;;;;;;;;;20.95;100.00;99346.22;5053265;28;19929;-75
2021/05/27 08:39:35;;;;;;;;;;;;;;;21.05;100.00;99337.13;5053474;28;20431;-75
2021/05/27 08:42:03;;;;;;;;;;;;;;;20.09;100.00;99350.25;5054023;28;20407;-75
2021/05/27 08:44:33;;;;;;;;;;;;;;;20.98;100.00;99348.88;5054595;28;19964;-75
2021/05/27 08:47:03;;;;;;;;;;;;;;;20.11;100.00;99359.06;5054392;28;19925;-75
2021/05/27 08:49:32;;;;;;;;;;;;;;;18.80;100.00;99352.31;5053106;28;19932;-74
2021/05/27 08:51:59;;;;;;;;;;;;;;;19.72;100.00;99360.19;5053337;28;20330;-75
2021/05/27 08:54:26;;;;;;;;;;;;;;;19.96;100.00;99352.53;5054243;28;19971;-75
2021/05/27 08:56:53;;;;;;;;;;;;;;;19.46;100.00;99354.91;5085875;28;19928;-75
2021/05/27 08:59:22;;;;;;;;;;;;;;;20.77;100.00;99349.19;5054168;28;19925;-75
2021/05/27 09:02:01;;;;;;;;;;;;;;;21.61;100.00;99338.91;5054216;28;19968;-74
2021/05/27 09:04:29;;;;;;;;;;;;;;;22.02;100.00;99340.63;5053217;28;19955;-75
2021/05/27 09:06:56;;;;;;;;;;;;;;;21.30;100.00;99347.94;5053161;28;19999;-75
2021/05/27 09:09:24;;;;;;;;;;;;;;;20.44;100.00;99354.16;5054135;28;20457;-75
2021/05/27 09:11:51;;;;;;;;;;;;;;;19.42;100.00;99364.84;5054065;28;19932;-75
2021/05/27 09:14:18;;;;;;;;;;;;;;;19.43;100.00;99363.59;5054336;28;20388;-75
2021/05/27 09:16:58;;;;;;;;;;;;;;;20.56;100.00;99353.91;5085811;28;20394;-75
2021/05/27 09:19:25;;;;;;;;;;;;;;;19.96;100.00;99346.84;5054205;28;19932;-74
2021/05/27 09:21:52;;;;;;;;;;;;;;;18.59;100.00;99365.38;5054038;28;20035;-75
2021/05/27 09:24:41;;;;;;;;;;;;;;;17.86;100.00;99372.88;5053865;28;19925;-74
2021/05/27 09:27:09;;;;;;;;;;;;;;;18.02;100.00;99371.03;5053890;28;20419;-74
2021/05/27 09:29:45;;;;;;;;;;;;;;;17.72;100.00;99367.00;5052770;28;19925;-74
2021/05/27 09:32:14;;;;;;;;;;;;;;;16.98;100.00;99366.22;5053752;28;20384;-75
2021/05/27 09:34:46;;;;;;;;;;;;;;;16.11;100.00;99377.28;5053711;28;19929;-74
2021/05/27 09:37:28;;;;;;;;;;;;;;;16.03;100.00;99378.78;5052656;28;19931;-74
2021/05/27 09:39:58;;;;;;;;;;;;;;;15.54;100.00;99382.41;5053273;28;19931;-74
2021/05/27 09:42:27;;;;;;;;;;;;;;;15.76;100.00;99377.66;5053337;28;19931;-74
2021/05/27 09:44:55;;;;;;;;;;;;;;;16.25;100.00;99376.06;5053770;28;19931;-74
2021/05/27 09:47:48;;;;;;;;;;;;;;;16.04;100.00;99383.16;5053512;28;20031;-75
2021/05/27 09:50:15;;;;;;;;;;;;;;;16.48;100.00;99377.72;5052300;28;19979;-74
2021/05/27 09:52:48;;;;;;;;;;;;;;;16.23;100.00;99373.69;5053154;28;19925;-75
2021/05/27 09:55:19;;;;;;;;;;;;;;;16.64;100.00;99386.81;5052197;28;19932;-74
2021/05/27 09:57:49;;;;;;;;;;;;;;;16.88;100.00;99393.59;5052543;28;19925;-75
2021/05/27 10:00:22;;;;;;;;;;;;;;;16.63;100.00;99390.06;5053788;28;19960;-75
2021/05/27 10:02:50;;;;;;;;;;;;;;;16.06;100.00;99391.97;5068822;28;20429;-74
2021/05/27 10:05:17;;;;;;;;;;;;;;;16.21;100.00;99390.25;5034482;28;19968;-74
2021/05/27 10:07:46;;;;;;;;;;;;;;;15.81;100.00;99391.97;5033578;28;19929;-74
2021/05/27 10:10:33;;;;;;;;;;;;;;;15.68;100.00;99394.00;5038652;28;20067;-74
2021/05/27 10:13:01;;;;;;;;;;;;;;;15.59;100.00;99391.06;5053466;28;20011;-75
2021/05/27 10:15:28;;;;;;;;;;;;;;;15.68;100.00;99394.00;5053146;28;19932;-74
2021/05/27 10:18:00;;;;;;;;;;;;;;;15.33;100.00;99397.06;5053167;28;20372;-74
2021/05/27 10:20:27;;;;;;;;;;;;;;;15.66;100.00;99401.34;5052993;28;20074;-77
2021/05/27 10:22:56;;;;;;;;;;;;;;;15.62;100.00;99395.81;5068644;28;20360;-77
2021/05/27 10:25:26;;;;;;;;;;;;;;;15.56;100.00;99397.59;5068686;28;19924;-77
2021/05/27 10:27:56;;;;;;;;;;;;;;;15.54;100.00;99405.69;5051780;28;19925;-77
2021/05/27 10:30:23;;;;;;;;;;;;;;;15.53;100.00;99404.13;5052799;28;19925;-77
2021/05/27 10:32:55;;;;;;;;;;;;;;;15.53;100.00;99414.59;5052939;28;20046;-77
2021/05/27 10:35:22;;;;;;;;;;;;;;;15.82;100.00;99410.47;5052951;28;19925;-77
2021/05/27 10:37:50;;;;;;;;;;;;;;;15.99;100.00;99411.91;5052637;28;20426;-77
2021/05/27 10:40:21;;;;;;;;;;;;;;;16.07;100.00;99407.63;5034862;28;19925;-79
2021/05/27 10:42:57;;;;;;;;;;;;;;;16.14;100.00;99415.88;5052650;28;20035;-77
2021/05/27 10:45:29;;;;;;;;;;;;;;;16.08;100.00;99412.00;5051496;28;19925;-77
2021/05/27 10:48:12;;;;;;;;;;;;;;;15.81;100.00;99416.56;5051293;28;19948;-77
2021/05/27 10:50:54;;;;;;;;;;;;;;;15.73;100.00;99416.00;5084783;28;20528;-77
2021/05/27 10:53:33;;;;;;;;;;;;;;;15.16;100.00;99424.50;5040404;28;20023;-77
2021/05/27 10:56:04;;;;;;;;;;;;;;;15.09;100.00;99418.28;5051284;28;19928;-77
2021/05/27 10:58:47;;;;;;;;;;;;;;;15.52;100.00;99435.56;5051855;28;19932;-77
2021/05/27 11:01:14;;;;;;;;;;;;;;;15.97;100.00;99422.06;5083677;28;19933;-77
2021/05/27 11:03:50;;;;;;;;;;;;;;;16.01;100.00;99423.53;5049662;28;19925;-77
2021/05/27 11:06:24;;;;;;;;;;;;;;;15.87;100.00;99423.22;5051600;28;19925;-77
2021/05/27 11:09:07;;;;;;;;;;;;;;;16.12;100.00;99428.81;5050746;28;19978;-78
2021/05/27 11:11:43;;;;;;;;;;;;;;;16.01;100.00;99420.72;5052380;28;19939;-77
2021/05/27 11:14:20;;;;;;;;;;;;;;;15.91;100.00;99424.69;5052339;28;19960;-77
2021/05/27 11:17:20;;;;;;;;;;;;;;;15.67;100.00;99420.59;5051706;28;20350;-77
2021/05/27 11:19:54;;;;;;;;;;;;;;;15.63;100.00;99425.53;5051759;28;19924;-77
2021/05/27 11:25:13;;;;;;;;;;;;;;;15.78;100.00;99426.69;5058739;28;19936;-77
2021/05/27 11:27:41;;;;;;;;;;;;;;;15.79;100.00;99428.28;5079764;28;19928;-77
2021/05/27 11:30:18;;;;;;;;;;;;;;;16.07;100.00;99427.38;5058652;28;19925;-77
2021/05/27 11:32:46;;;;;;;;;;;;;;;16.06;100.00;99425.00;5079846;28;19928;-77
2021/05/27 11:35:13;;;;;;;;;;;;;;;16.31;100.00;99419.34;5058538;28;20388;-77
2021/05/27 11:37:41;;;;;;;;;;;;;;;16.38;100.00;99424.75;5057461;28;19925;-77
2021/05/27 11:40:09;;;;;;;;;;;;;;;15.91;100.00;99426.69;5058747;28;19925;-77
2021/05/27 11:42:36;;;;;;;;;;;;;;;15.26;100.00;99428.25;5058369;28;20019;-77
2021/05/27 11:45:08;;;;;;;;;;;;;;;15.49;100.00;99430.81;5057506;28;19925;-77
2021/05/27 11:47:37;;;;;;;;;;;;;;;16.01;100.00;99432.00;5057408;28;21234;-77
2021/05/27 11:50:13;;;;;;;;;;;;;;;16.53;100.00;99422.25;5056446;28;19935;-78
2021/05/27 11:52:40;;;;;;;;;;;;;;;17.04;100.00;99421.63;5058055;28;19925;-78
2021/05/27 11:55:11;;;;;;;;;;;;;;;17.42;100.00;99427.06;5058596;28;19925;-77
2021/05/27 11:57:39;;;;;;;;;;;;;;;17.79;100.00;99412.72;5058432;28;19935;-77
2021/05/27 12:00:08;;;;;;;;;;;;;;;17.68;100.00;99420.03;5058658;28;20029;-77
2021/05/27 12:02:42;;;;;;;;;;;;;;;18.02;100.00;99428.38;5057251;28;20017;-77
2021/05/27 12:05:24;;;;;;;;;;;;;;;17.51;100.00;99416.66;5058082;28;19928;-77
2021/05/27 12:07:58;;;;;;;;;;;;;;;17.55;100.00;99422.94;5058657;28;19924;-77
2021/05/27 12:10:27;;;;;;;;;;;;;;;16.75;100.00;99423.88;5058342;28;20018;-77
2021/05/27 12:12:55;;;;;;;;;;;;;;;16.99;100.00;99424.25;5058459;28;20395;-77
2021/05/27 12:15:24;;;;;;;;;;;;;;;17.47;100.00;99421.66;5090669;28;19928;-75
2021/05/27 12:17:52;;;;;;;;;;;;;;;17.44;100.00;99416.94;5058131;28;19924;-77
2021/05/27 12:20:30;;;;;;;;;;;;;;;17.16;100.00;99422.81;5058702;28;20197;-78
2021/05/27 12:23:04;;;;;;;;;;;;;;;17.33;100.00;99427.00;5058493;28;19931;-78
2021/05/27 12:25:32;;;;;;;;;;;;;;;17.52;100.00;99417.44;5057114;28;19929;-79
2021/05/27 12:28:00;;;;;;;;;;;;;;;17.46;100.00;99424.94;5057272;28;19929;-78
2021/05/27 12:30:29;;;;;;;;;;;;;;;16.63;100.00;99423.94;5056976;28;19964;-78
2021/05/27 12:32:57;;;;;;;;;;;;;;;16.48;100.00;99425.66;5054723;28;20109;-78
2021/05/27 12:35:31;;;;;;;;;;;;;;;16.61;100.00;99423.59;5054973;28;19963;-78
2021/05/27 12:37:59;;;;;;;;;;;;;;;16.99;100.00;99418.59;5055187;28;19974;-78
2021/05/27 12:40:28;;;;;;;;;;;;;;;16.96;100.00;99425.16;5054967;28;20059;-78
2021/05/27 12:42:57;;;;;;;;;;;;;;;17.38;100.00;99434.88;5053786;28;19925;-78
2021/05/27 12:45:32;;;;;;;;;;;;;;;17.28;100.00;99419.91;5054984;28;20380;-78
2021/05/27 12:48:16;;;;;;;;;;;;;;;17.77;100.00;99417.25;5053381;28;19925;-78
2021/05/27 12:50:45;;;;;;;;;;;;;;;16.70;100.00;99423.66;5055027;28;19932;-78
2021/05/27 12:53:30;;;;;;;;;;;;;;;16.15;100.00;99428.72;5054828;28;19929;-78
2021/05/27 12:56:12;;;;;;;;;;;;;;;16.38;100.00;99423.94;5054890;28;19983;-78
2021/05/27 12:58:41;;;;;;;;;;;;;;;16.89;100.00;99429.03;5054875;28;19959;-78
2021/05/27 13:01:08;;;;;;;;;;;;;;;17.21;100.00;99422.22;5053338;28;19967;-78
2021/05/27 13:03:42;;;;;;;;;;;;;;;17.12;100.00;99405.19;5052589;28;19928;-79
2021/05/27 13:06:10;;;;;;;;;;;;;;;17.05;100.00;99417.56;5050562;28;20062;-78
2021/05/27 13:08:38;;;;;;;;;;;;;;;16.90;100.00;99405.22;5054201;28;19932;-79